ニューヨーク/JFK の空港の天気 - METARとTAF

ジョン・F・ケネディ国際空港 ( KJFK / JFK ) - アメリカ ニューヨーク州ニューヨーク
飛行場実況気象(Metar)
観測時間01/22 19:51 EST (01/23 00:51 UTC)
風向・風速北西 8m/s
視程10km以上
天気現象
全天の8割程度の雲 雲底高度 1520m
全天の8割程度の雲 雲底高度 2590m
気温4.4℃
湿度48%
気圧1010.8hPa
METARKJFK 230051Z 32016KT 10SM BKN050 BKN085 04/M06 A2985 RMK AO2 SLP108 T00441056
過去の天気等 Google飛行場航空写真 Wunderground天気予報

過去48時間のMETAR

飛行場予報(TAF)
発表時間: 1/22 18:41 EST (1/22 23:41 UTC)
予報対象時間: 22日19時 EST ~ 24日1時 EST
風向・風速西北西 6m/s 瞬間風速 10m/s
視程10km以上
天気現象周辺でしゅう雨
全天の4割程度の雲 雲底高度 610m
22日23時 EST から
風向・風速西北西 8m/s 瞬間風速 11m/s
視程10km以上
全天の4割程度の雲 雲底高度 610m
全天の4割程度の雲 雲底高度 1220m
全天の4割程度の雲 雲底高度 3050m
23日8時 EST から
風向・風速北西 10m/s 瞬間風速 15m/s
視程10km以上
全天の4割程度の雲 雲底高度 1220m
全天の4割程度の雲 雲底高度 2440m
23日11時 EST から
風向・風速北西 11m/s 瞬間風速 16m/s
視程10km以上
全天の4割程度の雲 雲底高度 300m
全天の4割程度の雲 雲底高度 1220m
24日0時 EST から
風向・風速西北西 8m/s 瞬間風速 12m/s
視程10km以上
なし
KJFK 222341Z 2300/2406 29011G19KT P6SM VCSH SCT020
FM230400 30015G22KT P6SM SCT020 SCT040 SCT100
FM231300 31020G29KT P6SM SCT040 SCT080
FM231600 31022G32KT P6SM SCT010 SCT040
FM240500 30015G23KT P6SM SKC